Time,TemperatureF,DewpointF,PressureIn,WindDirection,WindDirectionDegrees,WindSpeedMPH,WindSpeedGustMPH,Humidity,HourlyPrecipIn,Conditions,Clouds,dailyrainin,SoftwareType,DateUTC
2013-02-19 00:02:00,73.0,66.0,29.88,SSW,198,9.0,16.0,79,0.00,,,0.00,,2013-02-19 00:02:00,
2013-02-19 00:12:00,73.0,66.0,29.88,SSW,198,9.0,16.0,79,0.00,,,0.00,,2013-02-19 00:12:00,
2013-02-19 00:22:00,73.0,66.0,29.88,SSE,163,9.0,16.0,80,0.00,,,0.00,,2013-02-19 00:22:00,
2013-02-19 00:33:00,73.0,67.0,29.87,South,169,8.0,15.0,81,0.00,,,0.00,,2013-02-19 00:33:00,
2013-02-19 00:42:00,73.0,67.0,29.87,South,169,8.0,15.0,81,0.00,,,0.00,,2013-02-19 00:42:00,
2013-02-19 00:54:00,73.0,67.0,29.88,SW,236,8.0,16.0,82,0.00,,,0.00,,2013-02-19 00:54:00,
2013-02-19 01:03:00,73.0,68.0,29.87,SE,132,8.0,17.0,83,0.00,,,0.00,,2013-02-19 01:03:00,
2013-02-19 01:13:00,73.0,68.0,29.87,SE,132,8.0,17.0,83,0.00,,,0.00,,2013-02-19 01:13:00,
2013-02-19 01:23:00,72.0,67.0,29.88,SSE,154,8.0,15.0,85,0.00,,,0.00,,2013-02-19 01:23:00,
2013-02-19 01:33:00,73.0,68.0,29.88,SSE,160,10.0,15.0,85,0.00,,,0.00,,2013-02-19 01:33:00,
2013-02-19 01:43:00,73.0,68.0,29.88,SSE,160,10.0,15.0,85,0.00,,,0.00,,2013-02-19 01:43:00,
2013-02-19 01:55:00,73.0,68.0,29.88,SSW,196,7.0,15.0,85,0.00,,,0.00,,2013-02-19 01:55:00,
2013-02-19 02:02:00,73.0,68.0,29.88,SSE,160,7.0,14.0,85,0.00,,,0.00,,2013-02-19 02:02:00,
2013-02-19 02:13:00,73.0,68.0,29.88,SSE,160,7.0,14.0,85,0.00,,,0.00,,2013-02-19 02:13:00,
2013-02-19 02:23:00,72.0,68.0,29.89,SSE,148,6.0,13.0,86,0.00,,,0.00,,2013-02-19 02:23:00,
2013-02-19 02:34:00,72.0,68.0,29.89,SSE,160,7.0,13.0,87,0.00,,,0.00,,2013-02-19 02:34:00,
2013-02-19 02:42:00,72.0,68.0,29.89,SSE,160,7.0,13.0,87,0.00,,,0.00,,2013-02-19 02:42:00,
2013-02-19 02:54:00,72.0,68.0,29.90,South,175,6.0,12.0,87,0.00,,,0.00,,2013-02-19 02:54:00,
2013-02-19 03:05:00,72.0,68.0,29.90,SSE,166,7.0,14.0,88,0.00,,,0.00,,2013-02-19 03:05:00,
2013-02-19 03:13:00,72.0,68.0,29.90,SSE,166,7.0,14.0,88,0.00,,,0.00,,2013-02-19 03:13:00,
2013-02-19 03:23:00,72.0,69.0,29.89,SSW,198,6.0,16.0,89,0.01,,,0.01,,2013-02-19 03:23:00,
2013-02-19 03:33:00,72.0,69.0,29.90,SSW,213,7.0,14.0,89,0.01,,,0.01,,2013-02-19 03:33:00,
2013-02-19 03:43:00,72.0,69.0,29.90,SSW,213,7.0,14.0,89,0.01,,,0.01,,2013-02-19 03:43:00,
2013-02-19 03:54:00,72.0,69.0,29.89,SE,136,6.0,15.0,89,0.12,,,0.12,,2013-02-19 03:54:00,
2013-02-19 04:02:00,72.0,69.0,29.93,WSW,250,8.0,19.0,89,0.12,,,0.12,,2013-02-19 04:02:00,
2013-02-19 04:13:00,72.0,69.0,29.93,WSW,250,8.0,19.0,89,0.12,,,0.12,,2013-02-19 04:13:00,
2013-02-19 04:23:00,71.0,67.0,29.93,SW,222,15.0,28.0,88,0.24,,,0.25,,2013-02-19 04:23:00,
2013-02-19 04:33:00,71.0,67.0,29.93,SW,222,15.0,28.0,88,0.24,,,0.25,,2013-02-19 04:33:00,
2013-02-19 04:43:00,71.0,67.0,29.93,SW,222,15.0,28.0,88,0.24,,,0.25,,2013-02-19 04:43:00,
2013-02-19 04:54:00,71.0,67.0,29.93,SW,222,15.0,28.0,88,0.24,,,0.25,,2013-02-19 04:54:00,
2013-02-19 05:02:00,71.0,67.0,29.93,SW,222,15.0,28.0,88,0.24,,,0.25,,2013-02-19 05:02:00,
2013-02-19 11:01:00,58.0,50.0,30.08,North,351,4.0,9.0,74,0.00,,,0.49,,2013-02-19 11:01:00,
2013-02-19 11:11:00,57.0,50.0,30.09,North,350,5.0,9.0,76,0.00,,,0.49,,2013-02-19 11:11:00,
2013-02-19 11:22:00,57.0,50.0,30.09,North,350,5.0,9.0,76,0.00,,,0.49,,2013-02-19 11:22:00,
2013-02-19 11:32:00,57.0,50.0,30.09,NNW,340,6.0,10.0,76,0.00,,,0.49,,2013-02-19 11:32:00,
2013-02-19 11:42:00,57.0,50.0,30.09,NNW,340,6.0,10.0,76,0.00,,,0.49,,2013-02-19 11:42:00,
2013-02-19 11:52:00,56.0,49.0,30.11,NNW,338,4.0,8.0,78,0.00,,,0.49,,2013-02-19 11:52:00,
2013-02-19 12:01:00,56.0,49.0,30.11,NNW,345,5.0,8.0,78,0.00,,,0.49,,2013-02-19 12:01:00,
2013-02-19 12:12:00,56.0,49.0,30.11,NNW,345,5.0,8.0,78,0.00,,,0.49,,2013-02-19 12:12:00,
2013-02-19 12:22:00,55.0,49.0,30.12,North,5,4.0,7.0,79,0.00,,,0.49,,2013-02-19 12:22:00,
2013-02-19 12:32:00,55.0,49.0,30.12,North,355,4.0,8.0,79,0.00,,,0.49,,2013-02-19 12:32:00,
2013-02-19 12:42:00,55.0,49.0,30.12,North,355,4.0,8.0,79,0.00,,,0.49,,2013-02-19 12:42:00,
2013-02-19 12:52:00,55.0,49.0,30.13,NNE,22,4.0,8.0,79,0.00,,,0.49,,2013-02-19 12:52:00,
2013-02-19 13:02:00,55.0,49.0,30.14,North,349,5.0,7.0,79,0.00,,,0.49,,2013-02-19 13:02:00,
2013-02-19 13:11:00,55.0,49.0,30.14,North,349,5.0,7.0,79,0.00,,,0.49,,2013-02-19 13:11:00,
2013-02-19 13:22:00,55.0,48.0,30.14,NNE,20,4.0,7.0,78,0.00,,,0.49,,2013-02-19 13:22:00,
2013-02-19 13:32:00,55.0,48.0,30.14,North,350,3.0,7.0,78,0.00,,,0.49,,2013-02-19 13:32:00,
2013-02-19 13:41:00,55.0,48.0,30.14,North,350,3.0,7.0,78,0.00,,,0.49,,2013-02-19 13:41:00,
2013-02-19 13:52:00,55.0,48.0,30.16,North,355,4.0,7.0,78,0.00,,,0.49,,2013-02-19 13:52:00,
2013-02-19 14:01:00,56.0,49.0,30.15,North,360,5.0,9.0,77,0.00,,,0.49,,2013-02-19 14:01:00,
2013-02-19 14:11:00,56.0,49.0,30.15,North,360,5.0,9.0,77,0.00,,,0.49,,2013-02-19 14:11:00,
2013-02-19 14:21:00,57.0,49.0,30.16,NNE,16,7.0,13.0,75,0.00,,,0.49,,2013-02-19 14:21:00,
2013-02-19 14:32:00,58.0,49.0,30.17,NNE,17,7.0,10.0,73,0.00,,,0.49,,2013-02-19 14:32:00,
2013-02-19 14:42:00,58.0,49.0,30.17,NNE,17,7.0,10.0,73,0.00,,,0.49,,2013-02-19 14:42:00,
2013-02-19 14:52:00,58.0,49.0,30.18,ENE,65,6.0,12.0,72,0.00,,,0.49,,2013-02-19 14:52:00,
2013-02-19 15:01:00,58.0,48.0,30.18,North,5,5.0,14.0,70,0.00,,,0.49,,2013-02-19 15:01:00,
2013-02-19 15:11:00,58.0,48.0,30.18,North,5,5.0,14.0,70,0.00,,,0.49,,2013-02-19 15:11:00,
2013-02-19 15:21:00,59.0,49.0,30.19,ENE,71,6.0,13.0,69,0.00,,,0.49,,2013-02-19 15:21:00,
2013-02-19 15:31:00,60.0,49.0,30.20,North,11,8.0,15.0,66,0.00,,,0.49,,2013-02-19 15:31:00,
2013-02-19 15:42:00,60.0,49.0,30.20,North,11,8.0,15.0,66,0.00,,,0.49,,2013-02-19 15:42:00,
2013-02-19 15:52:00,60.0,49.0,30.20,NE,35,7.0,13.0,66,0.00,,,0.49,,2013-02-19 15:52:00,
2013-02-19 16:01:00,60.0,48.0,30.21,NNE,24,6.0,15.0,65,0.00,,,0.49,,2013-02-19 16:01:00,
2013-02-19 16:11:00,60.0,48.0,30.21,NNE,24,6.0,15.0,65,0.00,,,0.49,,2013-02-19 16:11:00,
2013-02-19 16:21:00,61.0,48.0,30.21,NNE,19,8.0,15.0,63,0.00,,,0.49,,2013-02-19 16:21:00,
2013-02-19 16:32:00,62.0,49.0,30.21,ENE,57,8.0,15.0,62,0.00,,,0.49,,2013-02-19 16:32:00,
2013-02-19 16:52:00,62.0,48.0,30.22,NNE,22,8.0,15.0,61,0.00,,,0.49,,2013-02-19 16:52:00,
2013-02-19 17:01:00,62.0,48.0,30.22,NE,42,8.0,14.0,60,0.00,,,0.49,,2013-02-19 17:01:00,
2013-02-19 17:11:00,62.0,48.0,30.22,NE,42,8.0,14.0,60,0.00,,,0.49,,2013-02-19 17:11:00,
2013-02-19 17:21:00,63.0,50.0,30.22,East,86,7.0,13.0,62,0.00,,,0.49,,2013-02-19 17:21:00,
2013-02-19 17:32:00,64.0,48.0,30.22,ENE,67,8.0,14.0,57,0.00,,,0.49,,2013-02-19 17:32:00,
2013-02-19 17:41:00,64.0,47.0,30.21,NE,55,9.0,14.0,55,0.00,,,0.49,,2013-02-19 17:41:00,
2013-02-19 17:52:00,64.0,47.0,30.21,NE,55,9.0,14.0,55,0.00,,,0.49,,2013-02-19 17:52:00,
2013-02-19 18:01:00,65.0,48.0,30.20,NNE,30,6.0,13.0,54,0.00,,,0.49,,2013-02-19 18:01:00,
2013-02-19 18:21:00,65.0,45.0,30.20,North,355,9.0,13.0,49,0.00,,,0.49,,2013-02-19 18:21:00,
2013-02-19 18:31:00,66.0,47.0,30.20,ENE,64,6.0,14.0,50,0.00,,,0.49,,2013-02-19 18:31:00,
2013-02-19 18:41:00,66.0,47.0,30.20,NE,43,7.0,13.0,50,0.00,,,0.49,,2013-02-19 18:41:00,
2013-02-19 18:52:00,66.0,47.0,30.20,NE,43,7.0,13.0,50,0.00,,,0.49,,2013-02-19 18:52:00,
2013-02-19 19:01:00,67.0,47.0,30.19,NNE,19,7.0,15.0,48,0.00,,,0.49,,2013-02-19 19:01:00,
2013-02-19 19:11:00,67.0,47.0,30.19,NNE,19,7.0,15.0,48,0.00,,,0.49,,2013-02-19 19:11:00,
2013-02-19 19:21:00,67.0,42.0,30.18,ENE,57,9.0,16.0,40,0.00,,,0.49,,2013-02-19 19:21:00,
2013-02-19 19:31:00,68.0,42.0,30.18,North,350,8.0,14.0,39,0.00,,,0.49,,2013-02-19 19:31:00,
2013-02-19 19:41:00,68.0,42.0,30.18,North,350,8.0,14.0,39,0.00,,,0.49,,2013-02-19 19:41:00,
2013-02-19 19:52:00,68.0,41.0,30.18,NNE,24,8.0,14.0,37,0.00,,,0.49,,2013-02-19 19:52:00,
2013-02-19 20:01:00,69.0,42.0,30.17,ENE,61,6.0,14.0,37,0.00,,,0.49,,2013-02-19 20:01:00,
2013-02-19 20:12:00,69.0,42.0,30.17,ENE,61,6.0,14.0,37,0.00,,,0.49,,2013-02-19 20:12:00,
2013-02-19 20:21:00,69.0,37.0,30.17,ENE,61,10.0,15.0,31,0.00,,,0.49,,2013-02-19 20:21:00,
2013-02-19 20:32:00,69.0,39.0,30.16,NE,47,8.0,15.0,33,0.00,,,0.49,,2013-02-19 20:32:00,
2013-02-19 20:41:00,69.0,39.0,30.16,NE,47,8.0,15.0,33,0.00,,,0.49,,2013-02-19 20:41:00,
2013-02-19 20:52:00,69.0,35.0,30.16,NE,37,10.0,16.0,29,0.00,,,0.49,,2013-02-19 20:52:00,
2013-02-19 21:02:00,69.0,38.0,30.16,ENE,57,7.0,14.0,32,0.00,,,0.49,,2013-02-19 21:02:00,
2013-02-19 21:11:00,69.0,38.0,30.16,ENE,57,7.0,14.0,32,0.00,,,0.49,,2013-02-19 21:11:00,
2013-02-19 21:21:00,69.0,39.0,30.16,East,88,7.0,12.0,33,0.00,,,0.49,,2013-02-19 21:21:00,
2013-02-19 21:31:00,69.0,35.0,30.16,NE,49,9.0,15.0,28,0.00,,,0.49,,2013-02-19 21:31:00,
2013-02-19 21:42:00,69.0,35.0,30.16,NE,49,9.0,15.0,28,0.00,,,0.49,,2013-02-19 21:42:00,
2013-02-19 21:52:00,69.0,37.0,30.15,ENE,72,8.0,16.0,31,0.00,,,0.49,,2013-02-19 21:52:00,
2013-02-19 22:02:00,69.0,38.0,30.15,ENE,78,9.0,14.0,32,0.00,,,0.49,,2013-02-19 22:02:00,
2013-02-19 22:11:00,69.0,38.0,30.15,ENE,78,9.0,14.0,32,0.00,,,0.49,,2013-02-19 22:11:00,
2013-02-19 22:21:00,69.0,40.0,30.16,NNE,29,8.0,12.0,35,0.00,,,0.49,,2013-02-19 22:21:00,
2013-02-19 22:32:00,69.0,40.0,30.16,ENE,70,5.0,10.0,35,0.00,,,0.49,,2013-02-19 22:32:00,
2013-02-19 22:41:00,69.0,40.0,30.16,ENE,70,5.0,10.0,35,0.00,,,0.49,,2013-02-19 22:41:00,
2013-02-19 22:52:00,68.0,41.0,30.15,NE,38,4.0,12.0,37,0.00,,,0.49,,2013-02-19 22:52:00,
2013-02-19 23:01:00,68.0,41.0,30.15,NE,38,7.0,11.0,38,0.00,,,0.49,,2013-02-19 23:01:00,
2013-02-19 23:21:00,67.0,38.0,30.15,ENE,59,7.0,12.0,34,0.00,,,0.49,,2013-02-19 23:21:00,
2013-02-19 23:32:00,67.0,35.0,30.15,ENE,63,5.0,13.0,31,0.00,,,0.49,,2013-02-19 23:32:00,
2013-02-19 23:41:00,67.0,35.0,30.15,ENE,63,5.0,13.0,31,0.00,,,0.49,,2013-02-19 23:41:00,
2013-02-19 23:52:00,66.0,36.0,30.15,NE,54,4.0,8.0,33,0.00,,,0.49,,2013-02-19 23:52:00,